x

Bodega Bay - 48nm Nnw Of San Francisco, Ca (46013) Wave Buoy

1:50pm - Fri 28th Nov 2014 All times are PST. -8 hours from GMT.

  • Sig Wave height 9.2ft
  • Peak Period 12s
  • Average Period 8s
  • Wind
    16mph, 20mph gusts
  • Sea Temp 58°f
  • Air Temp 58°f
  • Sea Pressure 1013mb
  • Bodega Bay - 48nm Nnw Of San Francisco, Ca
  • Bodega Bay - 48nm Nnw Of San Francisco, Ca

More Historic Weather Station data

Upgrade to MSW Pro to gain access to the past 30 days of data for over 8000 Wavebouys and Weather Stations around the globe.

Join Pro

Comparision Forecast

View Surf forecast
   
Fri 11/28 1:50pm 9ft 12s 8s 16 20 mph 1013mb 58f 58f
12:50pm 10ft 13s 8s 18 22 mph 1013.6mb 58f 58f
11:50am 9ft 14s 8s 18 22 mph 1014.4mb 58f 58f
10:50am 9.5ft 13s 9s 18 22 mph 1015.1mb 58f 58f
9:50am 10ft 14s 9s 16 20 mph 1015.7mb 58f 57f
8:50am 8.5ft 14s 8s 16 20 mph 1015.6mb 58f 57f
7:50am 9ft 13s 9s 16 18 mph 1015.4mb 58f 57f
6:50am 8ft 15s 9s 13 18 mph 1015.1mb 58f 56f
5:50am 8ft 15s 10s 16 20 mph 1015.3mb 58f 57f
4:50am 8ft 14s 10s 13 16 mph 1015.7mb 58f 57f
3:50am 7ft 12s 9s 13 18 mph 1015.8mb 58f 57f
2:50am 8ft 15s 10s 11 13 mph 1016.6mb 58f 57f
1:50am 9ft 15s 11s 9 11 mph 1016.9mb 58f 58f
12:50am 8ft 15s 10s 7 9 mph 1017.3mb 58f 58f
Thu 11/27 11:50pm 9ft 14s 11s 7 9 mph 1017.7mb 58f 58f
10:50pm 8ft 14s 11s 4
mph
1018.2mb 58f 58f
9:50pm 7.5ft 14s 11s  -  2 mph 1018.4mb 58f 59f
8:50pm 7ft 15s 11s 7 9 mph 1018.6mb 58f 59f
7:50pm 7ft 15s 11s 7 9 mph 1018.6mb 59f 59f
6:50pm 5ft 15s 10s 4 7 mph 1018.4mb 58f 58f
5:50pm 4.5ft 15s 10s 4 7 mph 1018.2mb 58f 57f
4:50pm 4ft 15s 9s 7
mph
1018mb 59f 58f
3:50pm 4ft 16s 9s 7
mph
1018mb 59f 58f
2:50pm 3.5ft 12s 9s 7
mph
1018.3mb 59f 58f
1:50pm 3ft 13s 8s 4 7 mph 1018.9mb 59f 59f
12:50pm 3.5ft 12s 7s 7 9 mph 1019.6mb 58f 58f
11:50am 3ft 11s 6s 9 11 mph 1020.6mb 58f 58f
10:50am 3ft 12s 7s 9 11 mph 1021.4mb 58f 57f
9:50am 3ft 11s 6s 11 13 mph 1021.7mb 58f 56f
8:50am 3.5ft 11s 6s 11 13 mph 1021.5mb 58f 56f
7:50am 3ft 11s 7s 11 16 mph 1021.4mb 58f 56f
6:50am 3.5ft 12s 8s 9 11 mph 1021.3mb 58f 57f
5:50am 3ft 11s 7s 7 9 mph 1021.5mb 58f 57f
4:50am 3.5ft 11s 7s 9 11 mph 1021.4mb 58f 57f
3:50am 3.5ft 12s 7s 11 13 mph 1021.4mb 58f 57f
2:50am 3.5ft 12s 7s 13
mph
1021.6mb 59f 58f
1:50am 3.5ft 12s 8s 9 11 mph 1021.9mb 59f 58f
12:50am 3ft 11s 7s 9 11 mph 1022.3mb 59f 57f
Wed 11/26 11:50pm 3.5ft 13s 7s 9 11 mph 1022.6mb 59f 58f
10:50pm 3ft 13s 9s 11 13 mph 1022.4mb 59f 58f
9:50pm 3ft 11s 9s 7 9 mph 1022.6mb 58f 58f
8:50pm 2.5ft 13s 9s 2 4 mph 1023mb 58f 60f
7:50pm 3ft 12s 9s 4
mph
1022.8mb 58f 60f
6:50pm 3.5ft 11s 9s 2 4 mph 1022.7mb 59f 60f
5:50pm 3.5ft 11s 9s  -  2 mph 1022.6mb 59f 60f
4:50pm 3.5ft 11s 9s 4
mph
1022.8mb 59f 60f
3:50pm 3.5ft 12s 7s 4 7 mph 1022.5mb 59f 60f
2:50pm 3.5ft 12s 7s  -  2 mph 1022.7mb 59f 62f
1:50pm 3.5ft 12s 7s 7
mph
1022.8mb 58f 60f
12:50pm 4ft 11s 6s 7 9 mph 1023.2mb 58f 60f
11:50am 4.5ft 13s 6s 11 13 mph 1024mb 58f 60f
10:50am 5ft 11s 6s 16 18 mph 1024.7mb 58f 58f
9:50am 4.5ft 12s 6s 20 25 mph 1024.9mb 58f 56f
8:50am 5ft 11s 7s 20 25 mph 1024.8mb 58f 56f
7:50am 5ft 11s 7s 18 20 mph 1025.3mb 58f 56f
6:50am 6ft 12s 8s 16 20 mph 1025.5mb 58f 56f
5:50am 5.5ft 12s 7s 18 22 mph 1024.8mb 58f 56f
4:50am 5.5ft 12s 7s 18 22 mph 1025.1mb 58f 56f
3:50am 5.5ft 13s 8s 18 20 mph 1025.4mb 58f 57f
2:50am 6ft 12s 8s 13 18 mph 1025.7mb 59f 57f
1:50am 6ft 13s 8s 16 18 mph 1025.8mb 59f 57f
12:50am 5ft 13s 8s 16 18 mph 1025.8mb 58f 57f
Tue 11/25 11:50pm 5ft 13s 8s 13 18 mph 1026.3mb 58f 58f
10:50pm 6ft 12s 10s 13 16 mph 1026.8mb 58f 58f
9:50pm 6ft 13s 10s 11 13 mph 1027.1mb 58f 58f
8:50pm 6.5ft 14s 11s 9 11 mph 1027.6mb 58f 59f
7:50pm 8ft 13s 11s 9
mph
1027.6mb 58f 59f
6:50pm 7ft 14s 10s 7 9 mph 1027.6mb 58f 59f
5:50pm 7ft 13s 10s 9 11 mph 1027.5mb 58f 59f
4:50pm 7ft 14s 10s 7 9 mph 1027.8mb 58f 59f
3:50pm 6ft 13s 9s 7 9 mph 1028.1mb 58f 59f
2:50pm 7ft 14s 10s 9 11 mph 1028.3mb 58f 60f
1:50pm 7.5ft 15s 10s 11 13 mph 1028.5mb 58f 61f
12:50pm 8ft 15s 10s 9 13 mph 1029.1mb 58f 60f
11:50am 7.5ft 13s 10s 13 16 mph 1029.8mb 58f 58f
10:50am 7ft 14s 9s 13 16 mph 1030.9mb 58f 57f
9:50am 8ft 14s 9s 13 20 mph 1031.1mb 58f 56f
8:50am 9ft 14s 10s 18 20 mph 1030.7mb 58f 56f
7:50am 8ft 13s 10s 13 16 mph 1030.4mb 58f 56f
6:50am 8ft 13s 10s 11 13 mph 1030.1mb 58f 57f
5:50am 8ft 14s 11s 9 13 mph 1030mb 58f 57f
4:50am 8ft 14s 10s 11 13 mph 1029.9mb 58f 56f
3:50am 8ft 14s 10s 11 16 mph 1029.7mb 58f 56f
2:50am 9ft 14s 10s 11 16 mph 1029.9mb 58f 57f
1:50am 9.5ft 14s 11s 7 11 mph 1029.8mb 58f 57f
12:50am 7ft 15s 9s 4 9 mph 1029.8mb 58f 57f
Mon 11/24 11:50pm 9ft 14s 10s 7 9 mph 1029.6mb 58f 59f